Drummond Island, MI

7:20 AM EDT on May 29, 2015 (GMT -0400)
Potagannissing Bay Front | | Change Station
CLOSE
Current Station
Personal Weather Station
Location: Drummond Island, MI
Elevation: 587 ft
Nearby Weather Stations

Elev 587 ft 46.06 °N, 83.67 °W | Updated 17 seconds ago

Clear
Clear
50.0 °F
Feels Like 50.0 °F
N
2.0
Wind Variable Wind from ESE
Gusts 2.0 mph

Today
High -- | Low -- °F
--% Chance of Precip.
Yesterday
High -- | Low -- °F
Precip. -- in
5:49 AM 9:15 PM
Waxing Gibbous, 83% visible
Pressure 30.10 in
Visibility 5.0 miles
Clouds Clear
Dew Point 49 °F
Humidity 97%
Rainfall 0.00 in
Snow Depth Not available.
UV 1 out of 12
Pollen 7.30 out of 12
Air Quality Not available.
Flu Activity Sporadic
METAR KDRM 291115Z AUTO 00000KT 5SM BR CLR 12/11 A3010 RMK AO2 T01180113

More Conditions Fewer Conditions

Pressure 30.10 in
Visibility 5.0 miles
Clouds Clear
Dew Point 49 °F
Humidity 97%
Rainfall 0.00 in
Snow Depth Not available.
UV 1 out of 12
Pollen 7.30 out of 12
Air Quality Not available.
Flu Activity Sporadic
METAR KDRM 291115Z AUTO 00000KT 5SM BR CLR 12/11 A3010 RMK AO2 T01180113

More Conditions Fewer Conditions

Nowcast | as of 7:00 am EDT on May 29, 2015

At 8 am...partly cloudy. Temperature 57. Southeast winds 7 mph. At 10 am...partly cloudy. Temperature 63. Southeast winds 8 mph. At 12 PM...mostly cloudy. Temperature 69. Southeast winds 9 mph. At 2 PM...mostly cloudy. Scattered thunderstorms. Temperature 72. South winds 10 mph.

×

10-Day Weather Forecast

Almanac

Astronomy

May. 29, 2015 Rise Set
Actual Time
Civil Twilight
Nautical Twilight
Astronomical Twilight
Moon
Length of Visible Light
Length of Day
Tomorrow will be .
, % of the Moon is Illuminated

Today's Extremes

State Highs State Lows

Community

WunderPhotos

Upload Photos

1,825,241 photos uploaded!

WunderBlogs® & News

Nearby

Air Quality

  Air Quality AQ Index Pollutant
Not available.

Snow Depth

Station Depth Elevation

Earthquake Activity

City Distance Mag. Time & Date
Minimum magnitude displayed is 2.5.

Coastal Water Temperatures

Place Temperature

Stations

Nearby Weather Stations

Station Location Temp. Windchill Dew Point Humidity Wind Precip. Elev Updated Type